Time;durP1;ratioP1;P1;durP2;ratioP2;P2;SDS_P1;SDS_P2;PMS_P1;PMS_P2;Temp;Humidity;BMP_temperature;BMP_pressure;BME280_temperature;BME280_humidity;BME280_pressure;Samples;Min_cycle;Max_cycle;Signal;HPM_P1;HPM_P2
2021/10/20 00:01:46;;;;;;;10.10;6.80;;;;;;;13.16;67.39;98228.28;8220319;28;20417;-84
2021/10/20 00:05:49;;;;;;;7.60;6.77;;;;;;;13.13;67.24;98223.22;8222267;28;20508;-86
2021/10/20 00:09:53;;;;;;;9.80;6.83;;;;;;;13.19;66.69;98225.50;8222313;29;20214;-86
2021/10/20 00:13:56;;;;;;;8.17;6.80;;;;;;;13.21;66.88;98222.84;8222121;29;20211;-86
2021/10/20 00:17:59;;;;;;;7.40;6.60;;;;;;;13.20;66.51;98224.59;8222011;28;20203;-87
2021/10/20 00:22:02;;;;;;;7.80;6.60;;;;;;;13.22;66.38;98220.16;8221801;28;20529;-87
2021/10/20 00:26:07;;;;;;;11.50;6.97;;;;;;;13.14;66.40;98218.88;8221744;28;20226;-86
2021/10/20 00:30:11;;;;;;;8.40;6.83;;;;;;;13.17;66.24;98216.94;8228075;28;20194;-86
2021/10/20 00:34:14;;;;;;;8.93;6.50;;;;;;;13.21;66.36;98205.50;8253755;28;20210;-87
2021/10/20 00:38:16;;;;;;;9.20;6.50;;;;;;;13.10;66.57;98210.41;8252793;28;20489;-87
2021/10/20 00:42:23;;;;;;;8.87;6.53;;;;;;;13.14;66.06;98201.53;8252368;28;20233;-86
2021/10/20 00:46:27;;;;;;;7.77;6.00;;;;;;;13.06;66.27;98195.84;8252755;28;20202;-86
2021/10/20 00:50:30;;;;;;;8.57;6.53;;;;;;;13.03;66.57;98186.47;8252210;28;20254;-85
2021/10/20 00:54:40;;;;;;;7.83;6.27;;;;;;;13.00;66.14;98178.81;8252258;28;20230;-85
2021/10/20 00:58:44;;;;;;;7.03;5.90;;;;;;;12.95;66.21;98177.38;8252280;28;20387;-85
2021/10/20 01:02:47;;;;;;;9.53;6.73;;;;;;;12.88;66.07;98169.88;8241175;28;20230;-85
2021/10/20 01:06:51;;;;;;;6.57;5.60;;;;;;;12.90;66.48;98155.03;8220183;28;20210;-85
2021/10/20 01:10:54;;;;;;;9.23;6.33;;;;;;;12.91;65.94;98155.91;8220023;28;20225;-85
2021/10/20 01:14:58;;;;;;;9.80;6.20;;;;;;;12.90;66.17;98151.59;8224737;28;20361;-85
2021/10/20 01:19:01;;;;;;;6.90;6.30;;;;;;;12.89;66.05;98136.94;8226444;28;20209;-85
2021/10/20 01:23:06;;;;;;;7.07;6.00;;;;;;;12.93;66.04;98127.19;8226322;28;20234;-85
2021/10/20 01:27:10;;;;;;;9.03;6.07;;;;;;;12.80;66.40;98122.66;8226457;28;20203;-84
2021/10/20 01:31:13;;;;;;;7.80;6.00;;;;;;;12.86;66.04;98105.91;8226446;28;20209;-84
2021/10/20 01:35:16;;;;;;;6.90;5.80;;;;;;;12.84;66.36;98111.19;8225857;28;20203;-84
2021/10/20 01:39:21;;;;;;;6.27;5.60;;;;;;;12.86;65.86;98100.69;8225580;28;20203;-85
2021/10/20 01:43:24;;;;;;;9.33;5.70;;;;;;;12.83;65.92;98088.72;8225703;28;20398;-85
2021/10/20 01:47:27;;;;;;;8.27;5.70;;;;;;;12.79;65.65;98089.75;8225404;28;20203;-85
2021/10/20 01:51:30;;;;;;;6.00;5.40;;;;;;;12.83;65.41;98090.44;8223471;28;20238;-85
2021/10/20 01:55:35;;;;;;;7.00;5.80;;;;;;;12.74;65.57;98084.00;8162216;29;20211;-84
2021/10/20 01:59:38;;;;;;;6.30;5.57;;;;;;;12.78;65.80;98092.47;8161678;29;20208;-84
2021/10/20 02:03:41;;;;;;;6.03;5.37;;;;;;;12.76;64.92;98081.31;8161684;29;20550;-84
2021/10/20 02:07:44;;;;;;;5.47;4.93;;;;;;;12.75;65.18;98070.06;8161871;29;20205;-84
2021/10/20 02:11:48;;;;;;;6.10;5.50;;;;;;;12.72;64.93;98072.84;8161723;29;20376;-85
2021/10/20 02:15:51;;;;;;;7.77;5.40;;;;;;;12.70;65.18;98065.13;8161745;29;20227;-84
2021/10/20 02:19:54;;;;;;;6.90;5.23;;;;;;;12.71;65.17;98058.16;8161297;29;20216;-85
2021/10/20 02:23:57;;;;;;;7.70;5.83;;;;;;;12.73;65.07;98055.47;8160472;29;20229;-84
2021/10/20 02:28:01;;;;;;;5.87;5.27;;;;;;;12.72;65.11;98046.84;8161071;29;20231;-86
2021/10/20 02:32:05;;;;;;;7.13;5.23;;;;;;;12.70;65.14;98041.72;8161063;29;20220;-86
2021/10/20 02:36:08;;;;;;;5.77;5.10;;;;;;;12.67;65.09;98038.44;8160962;29;20215;-85
2021/10/20 02:40:12;;;;;;;6.70;5.50;;;;;;;12.66;65.41;98036.75;8160909;29;20526;-85
2021/10/20 02:44:16;;;;;;;9.80;5.63;;;;;;;12.67;65.12;98035.84;8160988;29;20237;-85
2021/10/20 02:48:19;;;;;;;7.13;5.87;;;;;;;12.34;66.46;98034.06;8159925;29;20204;-84
2021/10/20 02:52:22;;;;;;;8.77;5.40;;;;;;;12.20;67.05;98037.31;8173189;29;20246;-86
2021/10/20 02:56:25;;;;;;;6.33;5.43;;;;;;;12.33;66.25;98037.56;8223719;28;20725;-86
2021/10/20 03:00:30;;;;;;;5.90;5.30;;;;;;;12.54;65.31;98038.22;8223385;28;20211;-85
2021/10/20 03:04:33;;;;;;;6.07;5.33;;;;;;;12.52;64.85;98027.91;8222983;28;20231;-86
2021/10/20 03:08:35;;;;;;;6.30;5.70;;;;;;;12.48;65.00;98022.97;8222989;28;20203;-85
2021/10/20 03:12:38;;;;;;;9.00;5.90;;;;;;;12.50;64.84;98026.31;8222847;28;20215;-85
2021/10/20 03:16:43;;;;;;;5.87;5.10;;;;;;;12.53;64.90;98023.56;8223069;28;20215;-85
2021/10/20 03:20:46;;;;;;;9.27;5.30;;;;;;;12.57;64.66;98016.47;8222974;28;20407;-85
2021/10/20 03:24:49;;;;;;;6.47;5.07;;;;;;;12.55;64.65;98010.50;8222797;28;20239;-85
2021/10/20 03:28:52;;;;;;;6.43;5.10;;;;;;;12.56;64.58;98001.78;8222624;28;20203;-85
2021/10/20 03:32:56;;;;;;;9.20;5.47;;;;;;;12.54;64.53;97988.88;8222345;28;20218;-86
2021/10/20 03:36:59;;;;;;;6.13;5.20;;;;;;;12.55;64.47;97981.94;8223686;28;20214;-86
2021/10/20 03:41:02;;;;;;;5.77;5.27;;;;;;;12.28;65.10;97980.69;8222189;28;20203;-86
2021/10/20 03:45:13;;;;;;;7.80;5.30;;;;;;;12.27;65.28;97975.56;8222044;28;20258;-86
2021/10/20 03:49:17;;;;;;;7.30;5.70;;;;;;;12.25;65.15;97974.81;8221861;28;20227;-86
2021/10/20 03:53:20;;;;;;;7.53;5.30;;;;;;;12.37;64.55;97973.31;8221641;28;20246;-87
2021/10/20 03:57:23;;;;;;;5.90;5.30;;;;;;;12.32;64.32;97964.03;8221795;28;20207;-88
2021/10/20 04:01:26;;;;;;;7.87;5.77;;;;;;;12.42;64.07;97959.19;8221567;28;20525;-85
2021/10/20 04:05:31;;;;;;;9.40;5.63;;;;;;;12.39;64.19;97956.72;8221469;29;20226;-86
2021/10/20 04:09:34;;;;;;;8.67;5.30;;;;;;;12.34;64.34;97961.34;8221496;28;20210;-86
2021/10/20 04:13:37;;;;;;;7.23;5.30;;;;;;;12.33;64.10;97962.25;8221279;28;20207;-88
2021/10/20 04:17:40;;;;;;;5.50;5.00;;;;;;;12.33;63.71;97968.28;8221270;28;20203;-87
2021/10/20 04:21:45;;;;;;;6.80;4.83;;;;;;;12.35;63.68;97965.59;8221162;28;20498;-84
2021/10/20 04:25:50;;;;;;;5.97;5.37;;;;;;;12.28;63.82;97961.63;8220819;28;20242;-84
2021/10/20 04:29:54;;;;;;;8.57;5.50;;;;;;;12.22;63.73;97952.44;8220873;28;20490;-84
2021/10/20 04:33:57;;;;;;;8.67;5.50;;;;;;;12.29;63.88;97948.59;8220661;28;20223;-84
2021/10/20 04:38:02;;;;;;;9.60;8.00;;;;;;;12.23;63.59;97948.91;8220589;28;20401;-84
2021/10/20 04:42:05;;;;;;;7.63;6.70;;;;;;;12.21;63.53;97940.38;8220477;28;20235;-84
2021/10/20 04:46:08;;;;;;;5.40;4.90;;;;;;;12.16;63.62;97931.97;8220422;28;20222;-84
2021/10/20 04:50:11;;;;;;;6.20;5.20;;;;;;;12.18;63.59;97929.28;8219809;28;20546;-85
2021/10/20 04:54:15;;;;;;;6.67;4.77;;;;;;;12.19;63.62;97924.03;8218743;29;20419;-85
2021/10/20 04:58:18;;;;;;;6.60;5.60;;;;;;;12.11;63.84;97921.81;8219364;29;20203;-86
2021/10/20 05:02:21;;;;;;;9.00;5.00;;;;;;;12.06;63.81;97921.22;8216630;28;20214;-84
2021/10/20 05:06:24;;;;;;;7.40;5.30;;;;;;;11.93;64.30;97912.38;8218776;28;20202;-83
2021/10/20 05:10:29;;;;;;;7.07;5.10;;;;;;;11.56;65.76;97909.00;8218676;28;20199;-84
2021/10/20 05:14:32;;;;;;;8.93;6.10;;;;;;;11.62;64.84;97902.66;8219611;28;20209;-84
2021/10/20 05:18:35;;;;;;;6.20;5.60;;;;;;;11.38;66.29;97912.47;8219960;28;20210;-85
2021/10/20 05:22:39;;;;;;;8.17;5.20;;;;;;;11.81;64.94;97897.41;8219995;28;20203;-86
2021/10/20 05:26:43;;;;;;;5.60;4.90;;;;;;;11.88;64.16;97896.16;8219686;28;20215;-87
2021/10/20 05:30:46;;;;;;;7.87;5.30;;;;;;;11.91;64.02;97903.81;8219781;29;20199;-86
2021/10/20 05:34:49;;;;;;;6.47;5.63;;;;;;;11.42;65.71;97898.44;8222596;29;20211;-87
2021/10/20 05:38:52;;;;;;;6.83;5.37;;;;;;;11.64;64.67;97893.88;8220315;29;20214;-84
2021/10/20 05:42:56;;;;;;;7.27;5.67;;;;;;;11.69;64.70;97884.13;8218731;29;20219;-83
2021/10/20 05:46:59;;;;;;;9.07;5.33;;;;;;;11.76;64.53;97883.81;8219573;29;20203;-83
2021/10/20 05:51:02;;;;;;;6.37;5.20;;;;;;;11.56;64.74;97880.47;8219411;29;20257;-82
2021/10/20 05:55:06;;;;;;;6.47;5.40;;;;;;;11.67;64.89;97879.91;8219237;29;20246;-82
2021/10/20 05:59:10;;;;;;;8.07;5.47;;;;;;;11.50;65.26;97876.44;8219430;28;20207;-83
2021/10/20 06:03:13;;;;;;;7.67;5.90;;;;;;;11.51;65.38;97874.66;8236013;28;20230;-82
2021/10/20 06:07:16;;;;;;;7.60;6.10;;;;;;;11.71;64.71;97873.69;8224183;28;20223;-83
2021/10/20 06:11:19;;;;;;;13.10;5.83;;;;;;;11.51;65.18;97875.50;8224083;28;20195;-83
2021/10/20 06:15:25;;;;;;;8.77;5.37;;;;;;;11.68;64.76;97886.78;8210352;29;20207;-82
2021/10/20 06:19:44;;;;;;;7.17;5.87;;;;;;;11.50;65.61;97870.41;8223839;29;20413;-83
2021/10/20 06:23:47;;;;;;;11.30;6.73;;;;;;;11.11;67.46;97871.41;8224366;28;20234;-83
2021/10/20 06:27:50;;;;;;;12.00;6.20;;;;;;;11.66;65.60;97871.31;8224412;28;20287;-83
2021/10/20 06:31:54;;;;;;;8.07;6.47;;;;;;;11.71;65.07;97882.28;8223894;28;20382;-85
2021/10/20 06:35:59;;;;;;;11.20;7.50;;;;;;;11.04;67.68;97881.25;8224145;28;20213;-87
2021/10/20 06:40:01;;;;;;;8.73;6.23;;;;;;;11.34;66.92;97878.09;8223915;28;20207;-81
2021/10/20 06:44:07;;;;;;;7.00;6.20;;;;;;;11.76;65.60;97871.69;8223858;28;20343;-80
2021/10/20 06:48:12;;;;;;;8.60;6.37;;;;;;;11.33;66.11;97877.25;8223974;28;20203;-81
2021/10/20 06:52:14;;;;;;;8.90;5.17;;;;;;;11.47;66.92;97868.78;8223426;28;20249;-82
2021/10/20 06:56:17;;;;;;;11.70;7.17;;;;;;;11.37;66.79;97871.94;8223401;28;20211;-82
2021/10/20 07:00:21;;;;;;;8.07;6.57;;;;;;;11.47;67.20;97862.78;8223384;28;20490;-81
2021/10/20 07:04:26;;;;;;;8.73;6.90;;;;;;;11.68;67.20;97869.47;8223062;28;20405;-81
2021/10/20 07:08:29;;;;;;;8.13;5.73;;;;;;;11.76;66.19;97874.28;8223056;28;20213;-82
2021/10/20 07:12:34;;;;;;;8.00;6.00;;;;;;;12.01;66.07;97875.66;8222588;28;20482;-83
2021/10/20 07:16:38;;;;;;;8.27;6.00;;;;;;;11.98;65.85;97881.00;8223125;28;20206;-83
2021/10/20 07:20:43;;;;;;;11.03;6.30;;;;;;;12.27;65.53;97875.13;8222947;28;20390;-83
2021/10/20 07:24:45;;;;;;;11.70;6.30;;;;;;;12.59;65.01;97871.75;8250296;28;20226;-81
2021/10/20 07:28:49;;;;;;;8.17;6.43;;;;;;;12.78;63.61;97875.03;8254538;28;20538;-82
2021/10/20 07:32:52;;;;;;;8.27;6.30;;;;;;;12.89;63.98;97867.47;8254413;28;20213;-81
2021/10/20 07:36:56;;;;;;;8.20;6.20;;;;;;;13.11;62.90;97863.66;8254277;28;20213;-81
2021/10/20 07:40:59;;;;;;;8.20;5.80;;;;;;;13.72;61.39;97869.75;8254138;28;20486;-83
2021/10/20 07:45:02;;;;;;;9.57;6.40;;;;;;;14.19;60.97;97860.03;8253822;28;20230;-82
2021/10/20 07:49:10;;;;;;;8.47;5.80;;;;;;;14.62;59.69;97858.25;8253782;28;20222;-85
2021/10/20 07:53:14;;;;;;;6.47;5.67;;;;;;;14.90;58.64;97851.28;8253498;28;20237;-86
2021/10/20 07:57:21;;;;;;;9.77;6.03;;;;;;;14.59;58.88;97857.63;8253981;28;20210;-86
2021/10/20 08:01:24;;;;;;;8.73;6.27;;;;;;;14.50;60.52;97848.56;8249812;28;20202;-86
2021/10/20 08:05:32;;;;;;;6.67;5.97;;;;;;;14.92;58.18;97839.00;8192672;29;20418;-87
2021/10/20 08:09:36;;;;;;;11.60;6.00;;;;;;;15.15;57.88;97834.91;8192544;28;20379;-87
2021/10/20 08:13:39;;;;;;;8.00;5.90;;;;;;;14.87;58.17;97825.44;8192227;29;20212;-88
2021/10/20 08:17:43;;;;;;;8.27;5.60;;;;;;;15.35;57.70;97804.09;8190184;29;20525;-88
2021/10/20 08:21:46;;;;;;;10.90;6.50;;;;;;;15.41;58.48;97807.09;8195204;29;20204;-85
2021/10/20 08:25:50;;;;;;;9.77;5.57;;;;;;;16.84;54.84;97813.91;8191388;29;20410;-83
2021/10/20 08:29:53;;;;;;;10.13;6.10;;;;;;;17.40;52.48;97808.88;8213012;28;20516;-83
2021/10/20 08:33:56;;;;;;;8.07;6.23;;;;;;;17.02;52.30;97799.47;8253318;28;20213;-81
2021/10/20 08:38:03;;;;;;;7.30;5.57;;;;;;;17.55;52.27;97792.03;8253145;28;20210;-82
2021/10/20 08:42:09;;;;;;;6.67;5.93;;;;;;;17.66;51.96;97785.97;8254735;28;20209;-83
2021/10/20 08:46:33;;;;;;;7.10;5.30;;;;;;;18.48;49.25;97779.69;8257431;28;20222;-84
2021/10/20 08:50:37;;;;;;;11.13;6.10;;;;;;;17.99;49.95;97786.97;8255536;28;20226;-82
2021/10/20 08:54:43;;;;;;;7.83;5.77;;;;;;;18.73;49.20;97783.78;8258330;28;20234;-82
2021/10/20 08:58:48;;;;;;;6.07;5.13;;;;;;;19.39;48.24;97770.53;8254758;28;20202;-82
2021/10/20 09:02:51;;;;;;;7.80;5.40;;;;;;;19.65;48.19;97773.59;8245293;28;20218;-82
2021/10/20 09:06:54;;;;;;;6.47;5.70;;;;;;;19.56;47.77;97763.03;8225372;28;20227;-81
2021/10/20 09:11:00;;;;;;;8.70;5.40;;;;;;;19.76;47.47;97772.72;8223084;28;20249;-83
2021/10/20 09:15:06;;;;;;;7.57;5.33;;;;;;;19.10;48.30;97776.41;8224606;28;20207;-83
2021/10/20 09:19:13;;;;;;;8.83;5.57;;;;;;;18.85;49.00;97777.59;8223562;28;20498;-83
2021/10/20 09:23:17;;;;;;;9.03;5.60;;;;;;;18.56;50.27;97765.00;8223508;28;20203;-82
2021/10/20 09:27:24;;;;;;;6.53;5.40;;;;;;;18.22;51.91;97763.38;8224470;28;20231;-82
2021/10/20 09:31:29;;;;;;;7.23;5.63;;;;;;;18.33;51.91;97745.03;8221407;28;20222;-83
2021/10/20 09:35:33;;;;;;;9.67;5.80;;;;;;;18.58;52.23;97743.06;8229140;28;20288;-83
2021/10/20 09:39:39;;;;;;;7.87;5.13;;;;;;;18.94;50.68;97741.88;8230988;28;20209;-82
2021/10/20 09:43:43;;;;;;;9.03;5.37;;;;;;;18.49;50.74;97731.53;8231398;28;20270;-81
2021/10/20 09:47:47;;;;;;;13.63;5.30;;;;;;;18.50;50.09;97727.94;8230165;28;20230;-82
2021/10/20 09:52:10;;;;;;;6.20;4.50;;;;;;;18.72;50.59;97709.50;8229743;28;20238;-83
2021/10/20 09:56:21;;;;;;;6.47;5.07;;;;;;;18.53;51.02;97699.69;8227168;29;20405;-83
2021/10/20 10:00:24;;;;;;;10.70;5.20;;;;;;;19.33;48.15;97689.66;8225485;28;20203;-83
2021/10/20 10:04:29;;;;;;;6.33;4.83;;;;;;;19.88;47.65;97686.75;8249163;28;20248;-83
2021/10/20 10:08:32;;;;;;;5.13;4.50;;;;;;;19.74;47.39;97680.06;8257225;28;20209;-83
2021/10/20 10:12:35;;;;;;;7.50;4.80;;;;;;;19.03;48.56;97675.53;8257711;28;20214;-83
2021/10/20 10:16:39;;;;;;;8.83;4.40;;;;;;;20.04;45.64;97684.44;8257536;28;20490;-83
2021/10/20 10:20:45;;;;;;;6.83;4.53;;;;;;;19.89;46.23;97689.25;8257228;28;20489;-82
2021/10/20 10:24:48;;;;;;;9.57;5.13;;;;;;;19.69;47.15;97677.81;8256979;28;20399;-82
2021/10/20 10:29:06;;;;;;;6.17;4.90;;;;;;;20.19;45.74;97668.31;8256730;28;20207;-83
2021/10/20 10:33:20;;;;;;;6.03;4.63;;;;;;;20.20;45.54;97660.28;8256358;28;20206;-83
2021/10/20 10:37:25;;;;;;;9.07;5.03;;;;;;;20.06;46.02;97647.53;8240344;28;20506;-83
2021/10/20 10:41:34;;;;;;;5.70;4.00;;;;;;;20.27;46.21;97634.25;8224381;29;20210;-83
2021/10/20 10:45:38;;;;;;;9.60;4.00;;;;;;;20.29;46.86;97621.81;8223508;28;20229;-83
2021/10/20 10:49:49;;;;;;;6.17;4.13;;;;;;;20.27;46.05;97615.88;8224331;28;20223;-83
2021/10/20 10:53:54;;;;;;;7.90;4.37;;;;;;;19.91;47.58;97613.75;8223791;28;20244;-84
2021/10/20 10:58:01;;;;;;;6.23;4.20;;;;;;;19.70;48.04;97618.22;8223841;28;20398;-84
2021/10/20 11:02:04;;;;;;;6.63;4.30;;;;;;;20.25;48.89;97617.78;8225839;28;20205;-84
2021/10/20 11:06:08;;;;;;;6.70;4.13;;;;;;;20.60;48.02;97604.13;8225945;28;20465;-82
2021/10/20 11:10:13;;;;;;;6.53;3.60;;;;;;;20.07;47.68;97594.81;8228882;28;20227;-82
2021/10/20 11:14:17;;;;;;;4.83;3.03;;;;;;;20.02;46.60;97588.31;8229750;28;20204;-81
2021/10/20 11:18:21;;;;;;;7.10;3.30;;;;;;;20.32;46.70;97595.25;8226867;28;20276;-82
2021/10/20 11:22:25;;;;;;;3.93;2.93;;;;;;;20.13;45.76;97590.00;8224947;28;20203;-82
2021/10/20 11:26:32;;;;;;;3.10;2.80;;;;;;;20.23;45.08;97598.69;8225140;28;20242;-82
2021/10/20 11:30:36;;;;;;;5.23;3.10;;;;;;;19.74;45.83;97588.13;8227119;28;20503;-83
2021/10/20 11:34:40;;;;;;;3.27;2.60;;;;;;;20.24;45.80;97577.53;8227145;28;20251;-84
2021/10/20 11:38:45;;;;;;;4.10;3.47;;;;;;;20.30;44.45;97576.16;8227069;28;20205;-84
2021/10/20 11:42:50;;;;;;;5.27;2.80;;;;;;;20.61;44.45;97571.59;8226695;28;20203;-84
2021/10/20 11:46:57;;;;;;;3.80;3.20;;;;;;;20.37;44.10;97550.13;8226858;28;20525;-83
2021/10/20 11:51:01;;;;;;;10.23;3.20;;;;;;;20.32;45.00;97553.19;8225507;28;20551;-84
2021/10/20 11:55:05;;;;;;;6.00;3.00;;;;;;;20.42;45.06;97555.81;8226303;28;20312;-84
2021/10/20 11:59:20;;;;;;;5.53;2.83;;;;;;;20.38;45.10;97550.00;8225371;28;20205;-82
2021/10/20 12:03:33;;;;;;;4.10;3.10;;;;;;;20.20;45.33;97544.63;8227072;28;20507;-83
2021/10/20 12:07:36;;;;;;;3.00;2.60;;;;;;;20.14;46.13;97539.88;8224934;28;20232;-83
2021/10/20 12:11:39;;;;;;;6.07;2.60;;;;;;;20.17;46.81;97530.91;8224901;28;20204;-84
2021/10/20 12:15:43;;;;;;;3.93;2.30;;;;;;;20.25;47.23;97534.50;8222643;28;20222;-84
2021/10/20 12:19:46;;;;;;;7.20;3.00;;;;;;;20.58;46.55;97519.25;8221408;28;20215;-84
2021/10/20 12:23:49;;;;;;;5.13;2.60;;;;;;;20.38;47.30;97528.13;8225325;28;20204;-83
2021/10/20 12:27:52;;;;;;;6.00;2.87;;;;;;;20.19;47.17;97516.66;8225079;28;20222;-84
2021/10/20 12:31:58;;;;;;;4.73;2.60;;;;;;;20.25;47.36;97507.38;8224596;28;20206;-83
2021/10/20 12:36:05;;;;;;;4.27;2.60;;;;;;;20.26;46.02;97499.34;8220763;28;20213;-83
2021/10/20 12:40:11;;;;;;;2.80;2.30;;;;;;;20.36;45.43;97493.25;8222515;28;20210;-82
2021/10/20 12:44:14;;;;;;;3.93;2.00;;;;;;;20.50;45.15;97498.06;8225434;28;20204;-83
2021/10/20 12:48:18;;;;;;;2.60;2.17;;;;;;;20.52;45.71;97496.13;8227056;28;20562;-83
2021/10/20 12:52:21;;;;;;;4.07;2.07;;;;;;;20.25;45.63;97489.78;8222437;28;20246;-84
2021/10/20 12:56:32;;;;;;;4.60;1.93;;;;;;;20.06;46.31;97489.81;8220650;28;20235;-83
2021/10/20 13:00:35;;;;;;;4.30;2.47;;;;;;;20.06;46.72;97474.88;8220196;28;20204;-82
2021/10/20 13:04:39;;;;;;;2.83;1.97;;;;;;;20.10;47.23;97473.66;8220466;28;20203;-84
2021/10/20 13:08:42;;;;;;;3.53;2.10;;;;;;;20.03;47.19;97459.41;8221172;28;20231;-81
2021/10/20 13:12:46;;;;;;;2.80;2.10;;;;;;;19.98;46.72;97461.59;8226659;28;20214;-81
2021/10/20 13:16:49;;;;;;;4.40;2.23;;;;;;;19.91;46.93;97460.50;8226625;28;20213;-81
2021/10/20 13:20:53;;;;;;;2.13;1.93;;;;;;;19.86;46.51;97457.47;8228457;28;20203;-82
2021/10/20 13:24:56;;;;;;;3.07;2.10;;;;;;;19.87;47.20;97452.06;8226217;28;20204;-82
2021/10/20 13:28:59;;;;;;;2.77;2.10;;;;;;;19.82;47.57;97461.31;8226316;28;20231;-82
2021/10/20 13:33:03;;;;;;;4.80;2.30;;;;;;;19.75;48.44;97455.00;8226132;28;20276;-83
2021/10/20 13:37:08;;;;;;;3.43;2.27;;;;;;;19.71;48.34;97449.97;8226128;28;20206;-83
2021/10/20 13:41:12;;;;;;;2.57;1.93;;;;;;;19.74;47.92;97438.38;8225824;28;20208;-83
2021/10/20 13:45:16;;;;;;;2.53;1.87;;;;;;;19.79;48.39;97445.84;8225741;28;20246;-82
2021/10/20 13:49:19;;;;;;;2.20;2.00;;;;;;;19.79;48.61;97424.84;8225489;29;20526;-82
2021/10/20 13:53:23;;;;;;;5.00;2.70;;;;;;;19.93;47.75;97416.50;8225464;28;20254;-83
2021/10/20 13:57:27;;;;;;;3.57;2.70;;;;;;;19.85;48.21;97400.63;8225601;28;20505;-81
2021/10/20 14:01:30;;;;;;;4.77;3.53;;;;;;;19.90;47.87;97395.78;8225094;28;20203;-82
2021/10/20 14:05:36;;;;;;;4.43;2.40;;;;;;;19.92;48.00;97391.22;8225037;28;20318;-81
2021/10/20 14:09:42;;;;;;;3.00;2.60;;;;;;;19.86;48.19;97392.63;8225256;28;20234;-81
2021/10/20 14:13:46;;;;;;;3.00;2.70;;;;;;;19.84;48.87;97394.56;8224855;28;20214;-82
2021/10/20 14:17:49;;;;;;;3.53;2.50;;;;;;;19.79;49.25;97388.06;8224897;28;20214;-81
2021/10/20 14:21:52;;;;;;;5.67;3.83;;;;;;;19.74;49.69;97393.72;8223827;28;20203;-82
2021/10/20 14:25:56;;;;;;;6.23;5.47;;;;;;;19.63;49.50;97388.56;8224376;28;20204;-82
2021/10/20 14:29:59;;;;;;;4.80;4.30;;;;;;;19.52;49.63;97392.19;8224331;28;20237;-82
2021/10/20 14:34:08;;;;;;;6.43;5.20;;;;;;;19.50;49.20;97383.63;8224315;28;20433;-82
2021/10/20 14:38:11;;;;;;;5.97;3.97;;;;;;;19.46;49.59;97384.88;8223970;28;20218;-81
2021/10/20 14:42:31;;;;;;;6.13;2.93;;;;;;;19.46;49.29;97372.56;8224140;28;20203;-82
2021/10/20 14:46:35;;;;;;;3.17;2.50;;;;;;;19.44;49.47;97364.00;8223785;28;20231;-83
2021/10/20 14:50:38;;;;;;;3.60;2.30;;;;;;;19.40;49.59;97346.00;8223457;28;20231;-83
2021/10/20 14:54:41;;;;;;;6.23;2.73;;;;;;;19.64;48.73;97341.16;8223464;28;20239;-83
2021/10/20 14:58:45;;;;;;;5.03;2.30;;;;;;;19.72;48.53;97337.88;8223483;28;20211;-82
2021/10/20 15:02:51;;;;;;;5.47;2.77;;;;;;;19.78;48.68;97346.97;8223421;28;20203;-82
2021/10/20 15:06:54;;;;;;;7.70;2.60;;;;;;;19.78;49.16;97342.59;8223274;28;20227;-82
2021/10/20 15:10:57;;;;;;;5.97;4.53;;;;;;;19.76;49.06;97335.78;8223165;28;20221;-83
2021/10/20 15:15:01;;;;;;;4.80;3.30;;;;;;;19.66;49.69;97318.22;8223031;28;20211;-82
2021/10/20 15:19:11;;;;;;;7.13;2.97;;;;;;;19.58;50.41;97320.72;8231025;28;20199;-82
2021/10/20 15:23:14;;;;;;;4.47;4.00;;;;;;;19.55;50.19;97315.75;8254997;28;20209;-82
2021/10/20 15:27:17;;;;;;;5.53;3.40;;;;;;;19.50;50.91;97312.72;8254890;28;20412;-82
2021/10/20 15:31:24;;;;;;;4.37;3.10;;;;;;;19.43;51.08;97325.56;8254810;28;20497;-82
2021/10/20 15:35:33;;;;;;;5.13;2.50;;;;;;;19.41;51.11;97308.31;8254716;28;20226;-82
2021/10/20 15:39:37;;;;;;;6.13;2.83;;;;;;;19.37;51.48;97291.19;8253696;28;20214;-82
2021/10/20 15:43:41;;;;;;;3.33;2.43;;;;;;;19.29;51.53;97291.88;8254641;28;20206;-82
2021/10/20 15:47:45;;;;;;;3.43;2.70;;;;;;;19.23;51.95;97298.50;8229185;28;20238;-82
2021/10/20 15:51:48;;;;;;;3.03;2.47;;;;;;;19.18;52.04;97303.34;8221621;28;20223;-82
2021/10/20 15:55:52;;;;;;;3.20;2.70;;;;;;;19.15;52.17;97298.34;8222189;29;20203;-83
2021/10/20 15:59:55;;;;;;;4.67;3.20;;;;;;;19.09;53.01;97288.41;8250311;28;20202;-82
2021/10/20 16:03:59;;;;;;;3.50;2.87;;;;;;;19.04;53.07;97291.47;8253478;28;20493;-84
2021/10/20 16:08:02;;;;;;;11.47;3.87;;;;;;;18.99;53.88;97277.91;8245740;28;20222;-84
2021/10/20 16:12:06;;;;;;;6.70;4.30;;;;;;;18.92;53.61;97264.53;8220785;28;20513;-85
2021/10/20 16:16:09;;;;;;;44.20;5.33;;;;;;;18.93;54.47;97271.44;8221592;28;20234;-82
2021/10/20 16:20:14;;;;;;;5.57;3.80;;;;;;;18.92;54.61;97258.44;8221212;28;20200;-84
2021/10/20 16:24:17;;;;;;;9.07;5.47;;;;;;;18.82;54.56;97261.06;8220788;28;20489;-83
2021/10/20 16:28:20;;;;;;;6.93;5.20;;;;;;;18.79;54.80;97252.59;8220211;29;20223;-84
2021/10/20 16:32:23;;;;;;;8.00;4.17;;;;;;;18.78;55.19;97253.59;8221918;28;20358;-85
2021/10/20 16:36:27;;;;;;;5.60;4.30;;;;;;;18.72;55.49;97245.28;8220233;29;20246;-86
2021/10/20 16:40:30;;;;;;;10.00;5.53;;;;;;;18.74;55.07;97239.91;8220725;28;20405;-85
2021/10/20 16:44:33;;;;;;;12.97;7.80;;;;;;;18.70;55.08;97239.34;8220592;28;20291;-82
2021/10/20 16:48:36;;;;;;;7.87;6.73;;;;;;;18.76;54.99;97237.97;8251387;28;20236;-83
2021/10/20 16:52:40;;;;;;;9.03;6.60;;;;;;;18.71;55.35;97234.94;8251909;28;20226;-85
2021/10/20 16:56:48;;;;;;;5.97;4.47;;;;;;;18.71;55.38;97251.47;8252294;28;20218;-84
2021/10/20 17:00:51;;;;;;;7.17;4.27;;;;;;;18.70;55.04;97244.59;8252349;28;20206;-84
2021/10/20 17:04:55;;;;;;;9.27;5.23;;;;;;;18.65;55.10;97243.34;8252382;28;20501;-86
2021/10/20 17:08:59;;;;;;;6.97;4.30;;;;;;;18.69;55.13;97244.72;8252179;28;20226;-81
2021/10/20 17:13:02;;;;;;;11.13;3.80;;;;;;;18.62;55.16;97239.22;8252213;28;20213;-82
2021/10/20 17:17:05;;;;;;;5.80;4.30;;;;;;;18.67;55.08;97234.38;8238768;28;20229;-82
2021/10/20 17:21:08;;;;;;;8.43;4.10;;;;;;;18.66;55.45;97237.97;8220087;28;20209;-82
2021/10/20 17:25:13;;;;;;;5.43;3.63;;;;;;;18.68;55.11;97229.97;8220061;28;20211;-82
2021/10/20 17:29:16;;;;;;;7.17;4.27;;;;;;;18.63;55.34;97225.13;8219835;28;20230;-86
2021/10/20 17:33:33;;;;;;;10.33;4.10;;;;;;;18.69;56.80;97231.63;8220235;28;20199;-87
2021/10/20 17:37:37;;;;;;;9.43;3.70;;;;;;;18.83;56.35;97218.13;8221419;28;20369;-88
2021/10/20 17:41:41;;;;;;;8.43;4.10;;;;;;;18.71;55.75;97216.56;8221232;28;20396;-87
2021/10/20 17:45:44;;;;;;;7.03;4.10;;;;;;;18.74;55.76;97203.19;8221528;29;20214;-88
2021/10/20 17:49:47;;;;;;;10.00;4.13;;;;;;;18.81;55.48;97193.84;8220111;29;20237;-85
2021/10/20 17:53:50;;;;;;;5.37;3.83;;;;;;;18.84;54.83;97188.31;8220377;29;20257;-85
2021/10/20 17:57:54;;;;;;;8.60;4.00;;;;;;;18.68;55.68;97178.34;8223703;28;20214;-86
2021/10/20 18:01:58;;;;;;;5.63;4.30;;;;;;;18.61;55.71;97171.16;8226249;29;20209;-84
2021/10/20 18:06:01;;;;;;;7.43;3.73;;;;;;;18.54;55.83;97169.09;8226060;29;20214;-83
2021/10/20 18:10:04;;;;;;;5.13;3.50;;;;;;;18.56;55.98;97166.31;8225388;29;20231;-83
2021/10/20 18:14:09;;;;;;;8.10;4.50;;;;;;;18.53;55.91;97162.19;8225189;29;20203;-84
2021/10/20 18:18:12;;;;;;;5.90;5.00;;;;;;;18.51;56.09;97161.50;8224622;29;20213;-83
2021/10/20 18:22:15;;;;;;;5.33;4.60;;;;;;;18.43;56.31;97164.00;8225082;28;20388;-83
2021/10/20 18:26:19;;;;;;;6.47;4.10;;;;;;;18.40;56.09;97151.16;8224558;28;20218;-83
2021/10/20 18:30:24;;;;;;;7.47;4.30;;;;;;;18.43;55.87;97148.25;8248835;28;20293;-83
2021/10/20 18:34:27;;;;;;;5.57;4.10;;;;;;;18.37;56.07;97138.31;8256307;28;20208;-84
2021/10/20 18:38:32;;;;;;;6.57;4.07;;;;;;;18.34;56.41;97128.94;8256214;28;20206;-83
2021/10/20 18:42:38;;;;;;;8.97;4.70;;;;;;;18.32;56.49;97115.13;8256029;28;20202;-84
2021/10/20 18:46:42;;;;;;;6.30;4.43;;;;;;;18.30;56.63;97113.63;8256194;28;20209;-84
2021/10/20 18:50:45;;;;;;;9.80;4.80;;;;;;;18.19;57.19;97111.13;8243302;28;20235;-84
2021/10/20 18:54:49;;;;;;;5.20;4.30;;;;;;;18.19;57.36;97105.91;8223487;28;20572;-84
2021/10/20 18:58:52;;;;;;;5.77;4.37;;;;;;;18.34;56.58;97102.72;8223250;28;20203;-86
2021/10/20 19:02:56;;;;;;;6.93;4.67;;;;;;;18.36;56.79;97071.97;8220994;29;20360;-87
2021/10/20 19:06:59;;;;;;;9.10;4.57;;;;;;;18.29;56.40;97086.56;8223012;28;20199;-86